createdAt,value
2022-12-15T00:02:16.764Z,68.82
2022-12-15T00:05:02.003Z,76.63
2022-12-15T00:07:47.267Z,69.15
2022-12-15T00:10:32.548Z,67.93
2022-12-15T00:13:17.551Z,70.15
2022-12-15T00:16:05.571Z,73.40
2022-12-15T00:18:51.279Z,65.20
2022-12-15T00:21:36.337Z,64.65
2022-12-15T00:24:21.150Z,79.30
2022-12-15T00:27:06.211Z,69.22
2022-12-15T00:29:51.396Z,69.13
2022-12-15T00:32:36.383Z,71.07
2022-12-15T00:35:21.725Z,72.85
2022-12-15T00:38:06.611Z,71.50
2022-12-15T00:40:33.129Z,71.30
2022-12-15T00:42:59.631Z,58.28
2022-12-15T00:45:46.303Z,62.53
2022-12-15T00:48:12.774Z,71.18
2022-12-15T00:50:54.257Z,58.08
2022-12-15T00:53:40.816Z,74.22
2022-12-15T00:56:26.238Z,67.13
2022-12-15T00:59:11.766Z,67.30
2022-12-15T01:01:57.292Z,66.38
2022-12-15T01:04:42.775Z,77.95
2022-12-15T01:07:28.641Z,65.70
2022-12-15T01:10:13.674Z,71.55
2022-12-15T01:12:58.600Z,59.70
2022-12-15T01:15:43.726Z,61.17
2022-12-15T01:18:29.305Z,61.42
2022-12-15T01:21:04.785Z,66.18
2022-12-15T01:23:32.709Z,59.17
2022-12-15T01:25:59.482Z,64.22
2022-12-15T01:28:26.048Z,66.13
2022-12-15T01:30:52.629Z,66.15
2022-12-15T01:33:19.874Z,69.88
2022-12-15T01:35:58.398Z,78.05
2022-12-15T01:38:25.865Z,66.47
2022-12-15T01:41:04.510Z,56.20
2022-12-15T01:43:34.711Z,66.13
2022-12-15T01:46:01.830Z,64.40
2022-12-15T01:48:43.952Z,57.95
2022-12-15T01:51:17.251Z,62.78
2022-12-15T01:53:55.145Z,60.38
2022-12-15T01:56:24.203Z,57.80
2022-12-15T01:58:52.346Z,58.22
2022-12-15T02:01:18.957Z,59.70
2022-12-15T02:03:46.544Z,58.33
2022-12-15T02:06:13.703Z,59.58
2022-12-15T02:08:40.861Z,60.05
2022-12-15T02:11:52.722Z,58.22
2022-12-15T02:14:40.865Z,56.85
2022-12-15T02:17:21.705Z,57.63
2022-12-15T02:20:13.200Z,56.35
2022-12-15T02:23:07.041Z,72.53
2022-12-15T02:25:42.617Z,68.07
2022-12-15T02:28:30.771Z,60.30
2022-12-15T02:31:25.497Z,70.22
2022-12-15T02:33:59.057Z,73.97
2022-12-15T02:36:39.809Z,65.88
2022-12-15T02:41:32.815Z,64.38
2022-12-15T02:44:00.761Z,68.15
2022-12-15T02:47:15.049Z,69.03
2022-12-15T02:50:02.769Z,65.63
2022-12-15T02:52:31.875Z,61.67
2022-12-15T02:55:03.305Z,73.10
2022-12-15T02:57:40.284Z,66.50
2022-12-15T03:00:09.685Z,81.50
2022-12-15T03:02:39.619Z,60.88
2022-12-15T03:05:07.036Z,64.90
2022-12-15T03:07:33.584Z,69.30
2022-12-15T03:10:04.245Z,70.13
2022-12-15T03:14:57.938Z,67.75
2022-12-15T03:17:24.728Z,65.50
2022-12-15T03:19:51.269Z,66.63
2022-12-15T03:22:17.785Z,70.13
2022-12-15T03:24:44.321Z,67.45
2022-12-15T03:27:10.917Z,65.90
2022-12-15T03:29:37.697Z,65.40
2022-12-15T03:32:04.675Z,70.50
2022-12-15T03:34:31.206Z,72.68
2022-12-15T03:36:57.845Z,69.65
2022-12-15T03:39:24.373Z,61.35
2022-12-15T03:41:50.853Z,72.00
2022-12-15T03:44:17.363Z,69.10
2022-12-15T03:46:43.842Z,76.80
2022-12-15T03:49:10.436Z,73.28
2022-12-15T03:51:36.921Z,69.90
2022-12-15T03:54:03.483Z,72.03
2022-12-15T03:56:30.045Z,79.07
2022-12-15T03:58:56.592Z,72.10
2022-12-15T04:01:33.597Z,66.38
2022-12-15T04:04:01.667Z,67.97
2022-12-15T04:06:29.645Z,64.88
2022-12-15T04:08:56.201Z,73.05
2022-12-15T04:11:22.725Z,74.85
2022-12-15T04:13:49.248Z,74.60
2022-12-15T04:16:19.730Z,71.78
2022-12-15T04:19:07.731Z,67.22
2022-12-15T04:21:34.299Z,66.10
2022-12-15T04:24:19.312Z,66.10
2022-12-15T04:27:04.731Z,66.35
2022-12-15T04:29:49.771Z,62.67
2022-12-15T04:32:34.733Z,76.35
2022-12-15T04:35:20.179Z,91.45
2022-12-15T04:38:05.190Z,99.53
2022-12-15T04:40:50.102Z,98.57
2022-12-15T04:43:35.522Z,92.10
2022-12-15T04:46:20.644Z,121.75
2022-12-15T04:49:05.442Z,122.72
2022-12-15T04:51:52.529Z,116.53
2022-12-15T04:54:37.480Z,124.15
2022-12-15T04:57:22.709Z,139.07
2022-12-15T05:00:07.851Z,125.30
2022-12-15T05:02:53.322Z,118.75
2022-12-15T05:05:38.739Z,143.20
2022-12-15T05:08:23.860Z,134.77
2022-12-15T05:11:08.803Z,139.80
2022-12-15T05:13:54.012Z,138.70
2022-12-15T05:16:39.704Z,145.65
2022-12-15T05:19:24.925Z,151.38
2022-12-15T05:22:10.260Z,149.05
2022-12-15T05:24:55.455Z,162.30
2022-12-15T05:27:40.541Z,157.85
2022-12-15T05:30:26.869Z,161.60
2022-12-15T05:32:54.848Z,158.50
2022-12-15T05:35:21.429Z,147.93
2022-12-15T05:37:47.981Z,134.10
2022-12-15T05:40:14.718Z,155.48
2022-12-15T05:42:41.230Z,171.23
2022-12-15T05:45:08.262Z,152.85
2022-12-15T05:47:36.121Z,152.57
2022-12-15T05:50:02.801Z,163.95
2022-12-15T05:52:29.405Z,161.10
2022-12-15T05:54:55.981Z,134.25
2022-12-15T05:57:22.586Z,127.80
2022-12-15T05:59:49.446Z,116.45
2022-12-15T06:02:16.073Z,111.70
2022-12-15T06:04:42.689Z,100.22
2022-12-15T06:07:09.327Z,121.55
2022-12-15T06:09:35.957Z,109.30
2022-12-15T06:12:02.664Z,128.80
2022-12-15T06:14:29.577Z,112.93
2022-12-15T06:16:56.377Z,136.18
2022-12-15T06:19:24.245Z,99.22
2022-12-15T06:21:52.034Z,106.97
2022-12-15T06:24:18.636Z,115.45
2022-12-15T06:26:45.688Z,102.55
2022-12-15T06:29:13.236Z,115.63
2022-12-15T06:31:41.034Z,108.22
2022-12-15T06:34:11.305Z,121.72
2022-12-15T06:36:39.015Z,126.85
2022-12-15T06:39:08.712Z,111.43
2022-12-15T06:41:35.456Z,111.68
2022-12-15T06:44:02.320Z,125.18
2022-12-15T06:46:30.804Z,108.55
2022-12-15T06:48:58.160Z,99.15
2022-12-15T06:51:25.734Z,111.18
2022-12-15T06:53:55.488Z,96.15
2022-12-15T06:56:34.837Z,115.87
2022-12-15T06:59:03.321Z,123.70
2022-12-15T07:01:30.689Z,123.25
2022-12-15T07:03:59.951Z,109.25
2022-12-15T07:06:27.077Z,99.50
2022-12-15T07:08:56.938Z,95.38
2022-12-15T07:11:24.359Z,99.07
2022-12-15T07:13:52.331Z,109.97
2022-12-15T07:16:19.679Z,111.80
2022-12-15T07:18:46.446Z,87.50
2022-12-15T07:21:13.055Z,99.55
2022-12-15T07:23:54.217Z,101.60
2022-12-15T07:26:21.933Z,109.28
2022-12-15T07:28:48.579Z,92.90
2022-12-15T07:31:15.578Z,87.70
2022-12-15T07:33:42.896Z,84.95
2022-12-15T07:36:09.528Z,99.85
2022-12-15T07:38:36.602Z,82.90
2022-12-15T07:41:05.240Z,92.82
2022-12-15T07:43:32.822Z,92.45
2022-12-15T07:46:02.704Z,92.55
2022-12-15T07:48:29.458Z,87.18
2022-12-15T07:51:07.305Z,95.53
2022-12-15T07:53:37.339Z,84.90
2022-12-15T07:56:08.113Z,106.63
2022-12-15T07:58:35.905Z,88.40
2022-12-15T08:01:05.491Z,95.63
2022-12-15T08:03:33.077Z,106.85
2022-12-15T08:06:07.023Z,102.50
2022-12-15T08:08:34.589Z,89.07
2022-12-15T08:11:11.512Z,96.80
2022-12-15T08:14:02.015Z,89.18
2022-12-15T08:16:25.689Z,92.85
2022-12-15T08:18:52.360Z,91.50
2022-12-15T08:21:18.918Z,106.15
2022-12-15T08:23:45.566Z,92.10
2022-12-15T08:26:16.515Z,96.07
2022-12-15T08:28:44.027Z,91.47
2022-12-15T08:31:16.637Z,93.70
2022-12-15T08:33:43.528Z,86.07
2022-12-15T08:36:13.009Z,93.90
2022-12-15T08:38:40.438Z,79.65
2022-12-15T08:41:12.248Z,86.28
2022-12-15T08:43:45.790Z,81.93
2022-12-15T08:46:14.645Z,90.90
2022-12-15T08:48:47.007Z,70.63
2022-12-15T08:51:14.007Z,81.25
2022-12-15T08:53:40.695Z,83.57
2022-12-15T08:56:18.022Z,82.50
2022-12-15T08:58:45.645Z,63.38
2022-12-15T09:01:20.523Z,97.97
2022-12-15T09:03:50.053Z,99.20
2022-12-15T09:06:18.892Z,92.32
2022-12-15T09:08:50.100Z,105.43
2022-12-15T09:11:17.005Z,104.68
2022-12-15T09:13:43.633Z,99.90
2022-12-15T09:16:15.980Z,104.15
2022-12-15T09:18:53.900Z,96.00
2022-12-15T09:21:24.065Z,121.97
2022-12-15T09:23:52.068Z,113.90
2022-12-15T09:26:20.994Z,128.30
2022-12-15T09:28:50.121Z,129.95
2022-12-15T09:31:22.043Z,120.10
2022-12-15T09:33:50.246Z,115.53
2022-12-15T09:36:17.024Z,116.38
2022-12-15T09:38:43.890Z,125.60
2022-12-15T09:41:13.574Z,119.30
2022-12-15T09:44:19.347Z,119.03
2022-12-15T09:47:01.645Z,111.68
2022-12-15T09:49:51.685Z,125.57
2022-12-15T09:52:21.728Z,126.00
2022-12-15T09:54:48.568Z,128.23
2022-12-15T09:57:27.058Z,108.63
2022-12-15T10:00:12.251Z,117.50
2022-12-15T10:02:51.709Z,122.68
2022-12-15T10:06:07.184Z,123.63
2022-12-15T10:08:21.453Z,120.47
2022-12-15T10:11:06.785Z,114.82
2022-12-15T10:13:55.833Z,129.90
2022-12-15T10:16:24.134Z,127.75
2022-12-15T10:19:05.876Z,143.43
2022-12-15T10:21:32.436Z,127.55
2022-12-15T10:24:37.486Z,119.40
2022-12-15T10:27:18.096Z,123.30
2022-12-15T10:29:57.852Z,126.35
2022-12-15T10:32:37.948Z,119.78
2022-12-15T10:35:15.011Z,110.82
2022-12-15T10:37:42.753Z,124.72
2022-12-15T10:40:10.173Z,124.70
2022-12-15T10:42:47.496Z,115.85
2022-12-15T10:45:35.647Z,110.22
2022-12-15T10:48:07.251Z,117.43
2022-12-15T10:50:35.069Z,108.00
2022-12-15T10:53:07.119Z,106.95
2022-12-15T10:55:36.876Z,118.43
2022-12-15T10:58:14.431Z,110.60
2022-12-15T11:00:41.021Z,104.45
2022-12-15T11:03:24.293Z,116.15
2022-12-15T11:05:55.518Z,117.22
2022-12-15T11:08:23.125Z,122.20
2022-12-15T11:11:15.295Z,124.78
2022-12-15T11:13:43.073Z,117.82
2022-12-15T11:16:18.560Z,130.43
2022-12-15T11:18:48.918Z,114.03
2022-12-15T11:21:27.084Z,110.45
2022-12-15T11:24:10.929Z,116.65
2022-12-15T11:26:44.637Z,116.18
2022-12-15T11:29:21.256Z,119.78
2022-12-15T11:31:49.758Z,111.47
2022-12-15T11:34:18.499Z,120.97
2022-12-15T11:36:48.545Z,121.90
2022-12-15T11:39:31.821Z,111.43
2022-12-15T11:42:25.751Z,118.43
2022-12-15T11:45:03.462Z,119.53
2022-12-15T11:48:05.278Z,109.95
2022-12-15T11:50:50.981Z,128.40
2022-12-15T11:53:23.428Z,116.95
2022-12-15T11:56:31.682Z,117.57
2022-12-15T11:59:32.576Z,117.80
2022-12-15T12:02:15.585Z,111.45
2022-12-15T12:05:16.668Z,118.95
2022-12-15T12:07:51.048Z,134.50
2022-12-15T12:10:42.486Z,119.82
2022-12-15T12:13:30.607Z,116.97
2022-12-15T12:16:10.666Z,118.30
2022-12-15T12:18:43.829Z,120.25
2022-12-15T12:21:16.130Z,122.47
2022-12-15T12:24:04.047Z,121.75
2022-12-15T12:26:48.724Z,131.13
2022-12-15T12:29:32.968Z,118.20
2022-12-15T12:32:24.180Z,136.35
2022-12-15T12:41:07.296Z,126.25
2022-12-15T12:43:35.434Z,113.68
2022-12-15T12:46:20.694Z,130.00
2022-12-15T12:48:59.309Z,125.10
2022-12-15T12:51:40.018Z,112.32
2022-12-15T12:54:34.181Z,117.68
2022-12-15T12:57:21.424Z,100.20
2022-12-15T12:59:57.218Z,122.47
2022-12-15T13:02:26.123Z,123.10
2022-12-15T13:04:59.873Z,118.57
2022-12-15T13:07:34.605Z,117.70
2022-12-15T13:10:04.295Z,128.23
2022-12-15T13:12:54.194Z,132.52
2022-12-15T13:15:35.662Z,132.43
2022-12-15T13:20:57.634Z,139.52
2022-12-15T13:23:25.685Z,145.93
2022-12-15T13:25:55.878Z,139.35
2022-12-15T13:28:35.015Z,133.98
2022-12-15T13:31:17.014Z,126.57
2022-12-15T13:33:49.498Z,132.65
2022-12-15T13:36:37.852Z,125.47
2022-12-15T13:39:27.506Z,118.93
2022-12-15T13:44:45.333Z,129.05
2022-12-15T13:47:15.773Z,129.68
2022-12-15T13:49:53.208Z,125.57
2022-12-15T13:52:44.298Z,135.20
2022-12-15T13:55:28.083Z,136.13
2022-12-15T13:57:58.450Z,135.40
2022-12-15T14:00:26.284Z,131.02
2022-12-15T14:03:04.056Z,124.18
2022-12-15T14:05:31.493Z,129.20
2022-12-15T14:08:00.401Z,150.57
2022-12-15T14:10:32.833Z,127.18
2022-12-15T14:13:15.180Z,115.95
2022-12-15T14:15:46.169Z,129.75
2022-12-15T14:18:23.963Z,134.18
2022-12-15T14:20:50.527Z,138.20
2022-12-15T14:23:21.485Z,138.35
2022-12-15T14:25:57.779Z,135.15
2022-12-15T14:28:26.759Z,138.65
2022-12-15T14:30:53.439Z,139.63
2022-12-15T14:33:22.965Z,129.30
2022-12-15T14:35:55.996Z,145.35
2022-12-15T14:38:26.422Z,137.25
2022-12-15T14:40:56.095Z,154.25
2022-12-15T14:43:29.914Z,135.07
2022-12-15T14:46:06.515Z,137.57
2022-12-15T14:48:41.514Z,147.00
2022-12-15T14:51:21.022Z,133.38
2022-12-15T14:53:53.227Z,133.38
2022-12-15T14:56:24.169Z,146.55
2022-12-15T14:59:05.805Z,144.10
2022-12-15T15:01:42.307Z,139.35
2022-12-15T15:03:12.826Z,122.97
2022-12-15T15:04:31.036Z,127.75
2022-12-15T15:06:59.964Z,149.13
2022-12-15T15:09:29.679Z,135.90
2022-12-15T15:12:01.363Z,141.90
2022-12-15T15:14:48.877Z,130.10
2022-12-15T15:17:37.398Z,152.18
2022-12-15T15:20:08.518Z,141.35
2022-12-15T15:22:41.569Z,145.82
2022-12-15T15:25:39.904Z,130.80
2022-12-15T15:28:15.714Z,154.35
2022-12-15T15:30:49.191Z,132.40
2022-12-15T15:33:16.701Z,144.27
2022-12-15T15:35:44.368Z,133.32
2022-12-15T15:38:33.017Z,124.70
2022-12-15T15:41:02.967Z,138.40
2022-12-15T15:43:29.640Z,137.63
2022-12-15T15:46:03.200Z,143.63
2022-12-15T15:48:33.306Z,133.85
2022-12-15T15:51:00.869Z,128.23
2022-12-15T15:53:30.647Z,136.88
2022-12-15T15:55:58.656Z,131.20
2022-12-15T15:58:35.169Z,140.48
2022-12-15T16:01:04.760Z,142.20
2022-12-15T16:03:35.631Z,137.38
2022-12-15T16:06:03.239Z,145.60
2022-12-15T16:08:34.691Z,149.50
2022-12-15T16:11:01.722Z,136.00
2022-12-15T16:13:28.369Z,145.35
2022-12-15T16:15:55.182Z,150.95
2022-12-15T16:18:22.061Z,149.13
2022-12-15T16:20:51.230Z,142.65
2022-12-15T16:23:21.240Z,133.32
2022-12-15T16:25:51.226Z,142.27
2022-12-15T16:28:23.367Z,137.52
2022-12-15T16:30:50.509Z,133.88
2022-12-15T16:33:17.227Z,139.88
2022-12-15T16:35:44.657Z,133.93
2022-12-15T16:38:23.240Z,151.82
2022-12-15T16:40:50.194Z,148.95
2022-12-15T16:43:22.325Z,137.48
2022-12-15T16:45:50.227Z,143.15
2022-12-15T16:48:18.415Z,147.32
2022-12-15T16:50:55.168Z,148.43
2022-12-15T16:53:27.073Z,134.77
2022-12-15T16:55:55.142Z,159.68
2022-12-15T16:58:22.406Z,144.43
2022-12-15T17:00:49.036Z,153.38
2022-12-15T17:03:18.135Z,143.90
2022-12-15T17:05:48.960Z,159.98
2022-12-15T17:08:23.185Z,152.98
2022-12-15T17:10:50.643Z,149.68
2022-12-15T17:13:37.726Z,177.05
2022-12-15T17:16:06.702Z,167.63
2022-12-15T17:18:34.039Z,175.75
2022-12-15T17:21:10.908Z,164.85
2022-12-15T17:23:37.651Z,144.48
2022-12-15T17:26:28.097Z,166.82
2022-12-15T17:28:52.036Z,165.07
2022-12-15T17:31:20.450Z,149.60
2022-12-15T17:33:47.980Z,159.43
2022-12-15T17:36:20.877Z,155.23
2022-12-15T17:38:51.459Z,145.35
2022-12-15T17:41:42.345Z,145.60
2022-12-15T17:44:35.748Z,149.45
2022-12-15T17:47:04.372Z,126.32
2022-12-15T17:49:35.538Z,142.27
2022-12-15T17:52:06.267Z,140.60
2022-12-15T17:54:33.629Z,161.15
2022-12-15T17:57:00.298Z,141.75
2022-12-15T17:59:26.968Z,157.85
2022-12-15T18:01:58.765Z,146.85
2022-12-15T18:04:25.474Z,154.48
2022-12-15T18:06:56.610Z,134.10
2022-12-15T18:09:27.860Z,135.95
2022-12-15T18:11:54.508Z,136.80
2022-12-15T18:14:22.776Z,141.43
2022-12-15T18:16:49.666Z,136.10
2022-12-15T18:19:17.405Z,139.45
2022-12-15T18:21:44.182Z,149.73
2022-12-15T18:24:13.250Z,141.15
2022-12-15T18:26:40.190Z,143.60
2022-12-15T18:29:14.768Z,147.75
2022-12-15T18:31:42.313Z,127.18
2022-12-15T18:34:20.960Z,125.40
2022-12-15T18:36:47.574Z,135.98
2022-12-15T18:39:19.635Z,124.57
2022-12-15T18:41:46.571Z,126.28
2022-12-15T18:44:23.273Z,123.13
2022-12-15T18:46:50.631Z,137.05
2022-12-15T18:49:19.307Z,141.35
2022-12-15T18:51:46.968Z,149.07
2022-12-15T18:54:17.349Z,139.00
2022-12-15T18:56:44.009Z,144.35
2022-12-15T18:59:15.475Z,155.65
2022-12-15T19:01:43.194Z,172.95
2022-12-15T19:04:09.815Z,155.43
2022-12-15T19:06:36.560Z,154.02
2022-12-15T19:09:05.751Z,138.98
2022-12-15T19:11:32.683Z,137.63
2022-12-15T19:14:03.763Z,146.60
2022-12-15T19:16:50.781Z,136.65
2022-12-15T19:19:37.982Z,140.20
2022-12-15T19:22:29.818Z,143.45
2022-12-15T19:24:56.496Z,157.95
2022-12-15T19:27:26.606Z,151.20
2022-12-15T19:29:54.453Z,148.63
2022-12-15T19:32:24.045Z,141.02
2022-12-15T19:34:50.607Z,136.80
2022-12-15T19:37:25.641Z,143.90
2022-12-15T19:39:56.373Z,148.43
2022-12-15T19:44:52.045Z,133.15
2022-12-15T19:47:18.780Z,145.90
2022-12-15T19:49:45.325Z,136.68
2022-12-15T19:52:16.496Z,218.80
2022-12-15T19:54:44.818Z,160.80
2022-12-15T19:57:16.175Z,152.38
2022-12-15T19:59:43.097Z,143.02
2022-12-15T20:02:17.818Z,151.25
2022-12-15T20:04:45.072Z,141.55
2022-12-15T20:07:19.744Z,124.65
2022-12-15T20:09:46.375Z,145.20
2022-12-15T20:12:19.605Z,158.13
2022-12-15T20:14:48.600Z,139.10
2022-12-15T20:17:15.394Z,149.35
2022-12-15T20:19:42.551Z,147.95
2022-12-15T20:22:14.931Z,133.98
2022-12-15T20:24:42.627Z,137.82
2022-12-15T20:27:13.663Z,143.48
2022-12-15T20:29:40.329Z,138.80
2022-12-15T20:32:13.425Z,137.85
2022-12-15T20:34:40.291Z,141.40
2022-12-15T20:37:18.314Z,141.57
2022-12-15T20:39:44.941Z,157.38
2022-12-15T20:42:14.419Z,156.07
2022-12-15T20:44:41.112Z,151.23
2022-12-15T20:47:16.505Z,175.13
2022-12-15T20:49:43.670Z,186.98
2022-12-15T20:52:19.535Z,154.05
2022-12-15T20:54:46.092Z,156.07
2022-12-15T20:57:12.692Z,173.02
2022-12-15T20:59:39.434Z,172.57
2022-12-15T21:02:21.563Z,164.18
2022-12-15T21:04:49.722Z,167.45
2022-12-15T21:07:16.560Z,162.30
2022-12-15T21:09:43.085Z,159.07
2022-12-15T21:12:18.253Z,156.25
2022-12-15T21:14:45.093Z,159.07
2022-12-15T21:17:19.912Z,175.82
2022-12-15T21:19:47.022Z,147.35
2022-12-15T21:22:20.377Z,181.02
2022-12-15T21:24:49.075Z,181.63
2022-12-15T21:27:15.773Z,171.20
2022-12-15T21:29:47.280Z,187.38
2022-12-15T21:32:17.101Z,174.02
2022-12-15T21:34:43.803Z,182.60
2022-12-15T21:37:29.212Z,181.10
2022-12-15T21:39:56.147Z,164.48
2022-12-15T21:42:22.853Z,195.13
2022-12-15T21:44:49.469Z,191.73
2022-12-15T21:47:49.293Z,183.32
2022-12-15T21:50:17.291Z,194.80
2022-12-15T21:52:45.266Z,178.88
2022-12-15T21:55:19.519Z,184.80
2022-12-15T21:57:46.077Z,182.80
2022-12-15T22:00:15.278Z,180.43
2022-12-15T22:02:41.938Z,202.93
2022-12-15T22:05:23.023Z,195.18
2022-12-15T22:07:50.021Z,189.38
2022-12-15T22:10:18.255Z,191.38
2022-12-15T22:12:51.447Z,185.95
2022-12-15T22:15:24.317Z,181.77
2022-12-15T22:20:20.802Z,164.70
2022-12-15T22:22:47.805Z,189.05
2022-12-15T22:25:22.618Z,189.05
2022-12-15T22:27:50.295Z,185.38
2022-12-15T22:30:21.708Z,193.40
2022-12-15T22:32:48.501Z,200.40
2022-12-15T22:35:17.595Z,180.05
2022-12-15T22:37:44.977Z,197.43
2022-12-15T22:40:12.896Z,208.63
2022-12-15T22:42:43.366Z,181.27
2022-12-15T22:45:17.309Z,187.93
2022-12-15T22:47:46.047Z,185.77
2022-12-15T22:50:16.227Z,200.98
2022-12-15T22:52:45.510Z,188.88
2022-12-15T22:55:16.472Z,172.88
2022-12-15T22:57:51.178Z,180.68
2022-12-15T23:00:17.923Z,168.85
2022-12-15T23:02:45.516Z,170.30
2022-12-15T23:05:14.356Z,166.65
2022-12-15T23:07:41.416Z,178.05
2022-12-15T23:10:27.714Z,171.93
2022-12-15T23:12:54.591Z,169.95
2022-12-15T23:15:44.507Z,156.75
2022-12-15T23:18:11.227Z,174.27
2022-12-15T23:20:37.939Z,169.35
2022-12-15T23:23:04.926Z,165.00
2022-12-15T23:25:31.633Z,161.05
2022-12-15T23:27:58.248Z,162.25
2022-12-15T23:30:25.300Z,155.38
2022-12-15T23:32:52.031Z,156.15
2022-12-15T23:35:21.901Z,164.13
2022-12-15T23:37:48.532Z,160.35
2022-12-15T23:40:21.165Z,167.32
2022-12-15T23:42:48.631Z,158.88
2022-12-15T23:45:15.419Z,154.25
2022-12-15T23:47:42.092Z,154.25
2022-12-15T23:50:09.510Z,151.60
2022-12-15T23:52:36.942Z,150.45
2022-12-15T23:55:04.557Z,141.40
2022-12-15T23:57:31.411Z,147.05
2022-12-15T23:59:58.050Z,144.60
